sensor_id;sensor_type;location;lat;lon;timestamp;P1;durP1;ratioP1;P2;durP2;ratioP2
76332;SDS011;71254;53.010;6.508;2024-01-27T00:00:07;15.27;;;4.50;;
76332;SDS011;71254;53.010;6.508;2024-01-27T00:02:34;19.02;;;4.07;;
76332;SDS011;71254;53.010;6.508;2024-01-27T00:05:00;21.13;;;4.05;;
76332;SDS011;71254;53.010;6.508;2024-01-27T00:07:28;14.38;;;4.55;;
76332;SDS011;71254;53.010;6.508;2024-01-27T00:09:54;18.55;;;4.43;;
76332;SDS011;71254;53.010;6.508;2024-01-27T00:12:20;25.17;;;5.57;;
76332;SDS011;71254;53.010;6.508;2024-01-27T00:14:46;15.95;;;3.92;;
76332;SDS011;71254;53.010;6.508;2024-01-27T00:17:12;16.88;;;3.70;;
76332;SDS011;71254;53.010;6.508;2024-01-27T00:19:38;18.58;;;3.90;;
76332;SDS011;71254;53.010;6.508;2024-01-27T00:22:03;13.68;;;4.10;;
76332;SDS011;71254;53.010;6.508;2024-01-27T00:24:29;21.80;;;6.15;;
76332;SDS011;71254;53.010;6.508;2024-01-27T00:26:54;16.95;;;3.67;;
76332;SDS011;71254;53.010;6.508;2024-01-27T00:29:20;24.48;;;5.30;;
76332;SDS011;71254;53.010;6.508;2024-01-27T00:31:46;15.15;;;4.25;;
76332;SDS011;71254;53.010;6.508;2024-01-27T00:34:11;16.70;;;4.25;;
76332;SDS011;71254;53.010;6.508;2024-01-27T00:36:37;20.45;;;4.45;;
76332;SDS011;71254;53.010;6.508;2024-01-27T00:39:03;12.40;;;3.53;;
76332;SDS011;71254;53.010;6.508;2024-01-27T00:41:29;17.77;;;4.15;;
76332;SDS011;71254;53.010;6.508;2024-01-27T00:43:57;19.60;;;3.78;;
76332;SDS011;71254;53.010;6.508;2024-01-27T00:46:23;15.35;;;3.40;;
76332;SDS011;71254;53.010;6.508;2024-01-27T00:48:49;21.45;;;4.28;;
76332;SDS011;71254;53.010;6.508;2024-01-27T00:51:14;17.73;;;4.57;;
76332;SDS011;71254;53.010;6.508;2024-01-27T00:53:40;13.40;;;3.80;;
76332;SDS011;71254;53.010;6.508;2024-01-27T00:56:13;17.63;;;5.20;;
76332;SDS011;71254;53.010;6.508;2024-01-27T00:58:39;15.32;;;4.10;;
76332;SDS011;71254;53.010;6.508;2024-01-27T01:01:05;15.43;;;3.90;;
76332;SDS011;71254;53.010;6.508;2024-01-27T01:03:31;17.42;;;3.80;;
76332;SDS011;71254;53.010;6.508;2024-01-27T01:05:56;17.88;;;3.83;;
76332;SDS011;71254;53.010;6.508;2024-01-27T01:08:22;19.83;;;4.50;;
76332;SDS011;71254;53.010;6.508;2024-01-27T01:10:48;14.88;;;4.15;;
76332;SDS011;71254;53.010;6.508;2024-01-27T01:13:13;11.35;;;3.78;;
76332;SDS011;71254;53.010;6.508;2024-01-27T01:15:39;13.40;;;4.13;;
76332;SDS011;71254;53.010;6.508;2024-01-27T01:18:05;19.00;;;4.53;;
76332;SDS011;71254;53.010;6.508;2024-01-27T01:20:30;12.85;;;3.92;;
76332;SDS011;71254;53.010;6.508;2024-01-27T01:22:57;20.20;;;3.67;;
76332;SDS011;71254;53.010;6.508;2024-01-27T01:25:23;13.32;;;3.50;;
76332;SDS011;71254;53.010;6.508;2024-01-27T01:27:49;11.70;;;4.18;;
76332;SDS011;71254;53.010;6.508;2024-01-27T01:30:15;20.08;;;4.47;;
76332;SDS011;71254;53.010;6.508;2024-01-27T01:32:42;21.27;;;4.45;;
76332;SDS011;71254;53.010;6.508;2024-01-27T01:35:08;12.90;;;4.32;;
76332;SDS011;71254;53.010;6.508;2024-01-27T01:37:35;13.70;;;3.78;;
76332;SDS011;71254;53.010;6.508;2024-01-27T01:40:00;16.75;;;3.90;;
76332;SDS011;71254;53.010;6.508;2024-01-27T01:42:26;17.85;;;3.88;;
76332;SDS011;71254;53.010;6.508;2024-01-27T01:44:51;18.85;;;4.25;;
76332;SDS011;71254;53.010;6.508;2024-01-27T01:47:17;21.45;;;4.57;;
76332;SDS011;71254;53.010;6.508;2024-01-27T01:49:43;10.45;;;3.75;;
76332;SDS011;71254;53.010;6.508;2024-01-27T01:52:11;14.73;;;3.65;;
76332;SDS011;71254;53.010;6.508;2024-01-27T01:54:37;17.73;;;3.90;;
76332;SDS011;71254;53.010;6.508;2024-01-27T01:57:03;16.42;;;4.20;;
76332;SDS011;71254;53.010;6.508;2024-01-27T01:59:29;12.90;;;3.50;;
76332;SDS011;71254;53.010;6.508;2024-01-27T02:01:54;12.65;;;3.83;;
76332;SDS011;71254;53.010;6.508;2024-01-27T02:04:20;18.63;;;3.35;;
76332;SDS011;71254;53.010;6.508;2024-01-27T02:06:45;12.27;;;3.30;;
76332;SDS011;71254;53.010;6.508;2024-01-27T02:09:12;13.75;;;3.40;;
76332;SDS011;71254;53.010;6.508;2024-01-27T02:11:37;15.43;;;3.92;;
76332;SDS011;71254;53.010;6.508;2024-01-27T02:14:03;12.35;;;3.33;;
76332;SDS011;71254;53.010;6.508;2024-01-27T02:16:29;16.58;;;3.90;;
76332;SDS011;71254;53.010;6.508;2024-01-27T02:18:54;13.60;;;3.85;;
76332;SDS011;71254;53.010;6.508;2024-01-27T02:21:20;23.60;;;4.43;;
76332;SDS011;71254;53.010;6.508;2024-01-27T02:23:46;13.85;;;3.70;;
76332;SDS011;71254;53.010;6.508;2024-01-27T02:26:11;13.80;;;3.53;;
76332;SDS011;71254;53.010;6.508;2024-01-27T02:28:37;15.32;;;3.63;;
76332;SDS011;71254;53.010;6.508;2024-01-27T02:31:02;15.15;;;3.63;;
76332;SDS011;71254;53.010;6.508;2024-01-27T02:33:28;13.98;;;3.58;;
76332;SDS011;71254;53.010;6.508;2024-01-27T02:35:54;17.48;;;3.67;;
76332;SDS011;71254;53.010;6.508;2024-01-27T02:38:20;17.42;;;3.55;;
76332;SDS011;71254;53.010;6.508;2024-01-27T02:40:45;9.07;;;2.97;;
76332;SDS011;71254;53.010;6.508;2024-01-27T02:43:11;13.85;;;3.28;;
76332;SDS011;71254;53.010;6.508;2024-01-27T02:45:39;18.40;;;3.83;;
76332;SDS011;71254;53.010;6.508;2024-01-27T02:48:05;15.52;;;3.03;;
76332;SDS011;71254;53.010;6.508;2024-01-27T02:50:31;12.75;;;3.65;;
76332;SDS011;71254;53.010;6.508;2024-01-27T02:52:56;11.63;;;3.22;;
76332;SDS011;71254;53.010;6.508;2024-01-27T02:55:22;16.40;;;3.65;;
76332;SDS011;71254;53.010;6.508;2024-01-27T02:57:47;11.88;;;3.20;;
76332;SDS011;71254;53.010;6.508;2024-01-27T03:00:13;15.18;;;3.55;;
76332;SDS011;71254;53.010;6.508;2024-01-27T03:02:39;14.35;;;3.40;;
76332;SDS011;71254;53.010;6.508;2024-01-27T03:05:04;11.48;;;3.10;;
76332;SDS011;71254;53.010;6.508;2024-01-27T03:07:30;16.98;;;3.35;;
76332;SDS011;71254;53.010;6.508;2024-01-27T03:09:56;12.15;;;3.17;;
76332;SDS011;71254;53.010;6.508;2024-01-27T03:12:21;18.67;;;3.45;;
76332;SDS011;71254;53.010;6.508;2024-01-27T03:14:51;12.40;;;3.05;;
76332;SDS011;71254;53.010;6.508;2024-01-27T03:17:17;9.95;;;3.38;;
76332;SDS011;71254;53.010;6.508;2024-01-27T03:19:44;13.63;;;3.40;;
76332;SDS011;71254;53.010;6.508;2024-01-27T03:22:10;18.30;;;3.45;;
76332;SDS011;71254;53.010;6.508;2024-01-27T03:24:37;13.52;;;3.70;;
76332;SDS011;71254;53.010;6.508;2024-01-27T03:27:02;13.38;;;3.30;;
76332;SDS011;71254;53.010;6.508;2024-01-27T03:29:28;12.73;;;3.65;;
76332;SDS011;71254;53.010;6.508;2024-01-27T03:31:54;17.33;;;3.58;;
76332;SDS011;71254;53.010;6.508;2024-01-27T03:34:19;14.20;;;3.35;;
76332;SDS011;71254;53.010;6.508;2024-01-27T03:36:49;16.23;;;3.55;;
76332;SDS011;71254;53.010;6.508;2024-01-27T03:39:15;12.98;;;3.53;;
76332;SDS011;71254;53.010;6.508;2024-01-27T03:41:41;13.38;;;2.90;;
76332;SDS011;71254;53.010;6.508;2024-01-27T03:44:06;13.88;;;3.75;;
76332;SDS011;71254;53.010;6.508;2024-01-27T03:46:32;16.92;;;3.65;;
76332;SDS011;71254;53.010;6.508;2024-01-27T03:48:57;16.35;;;3.65;;
76332;SDS011;71254;53.010;6.508;2024-01-27T03:51:23;14.52;;;3.05;;
76332;SDS011;71254;53.010;6.508;2024-01-27T03:53:50;12.35;;;3.63;;
76332;SDS011;71254;53.010;6.508;2024-01-27T03:56:16;13.82;;;3.55;;
76332;SDS011;71254;53.010;6.508;2024-01-27T03:58:41;11.60;;;3.78;;
76332;SDS011;71254;53.010;6.508;2024-01-27T04:01:07;12.82;;;3.42;;
76332;SDS011;71254;53.010;6.508;2024-01-27T04:03:33;14.63;;;3.20;;
76332;SDS011;71254;53.010;6.508;2024-01-27T04:05:58;17.25;;;3.47;;
76332;SDS011;71254;53.010;6.508;2024-01-27T04:08:28;14.02;;;3.35;;
76332;SDS011;71254;53.010;6.508;2024-01-27T04:10:54;13.20;;;4.10;;
76332;SDS011;71254;53.010;6.508;2024-01-27T04:13:20;14.30;;;3.50;;
76332;SDS011;71254;53.010;6.508;2024-01-27T04:15:46;11.75;;;2.92;;
76332;SDS011;71254;53.010;6.508;2024-01-27T04:18:11;14.13;;;3.60;;
76332;SDS011;71254;53.010;6.508;2024-01-27T04:20:37;13.90;;;3.50;;
76332;SDS011;71254;53.010;6.508;2024-01-27T04:23:03;18.80;;;4.22;;
76332;SDS011;71254;53.010;6.508;2024-01-27T04:25:29;13.00;;;4.18;;
76332;SDS011;71254;53.010;6.508;2024-01-27T04:27:55;18.52;;;3.72;;
76332;SDS011;71254;53.010;6.508;2024-01-27T04:30:20;16.75;;;3.40;;
76332;SDS011;71254;53.010;6.508;2024-01-27T04:32:46;10.52;;;3.40;;
76332;SDS011;71254;53.010;6.508;2024-01-27T04:35:14;16.58;;;3.28;;
76332;SDS011;71254;53.010;6.508;2024-01-27T04:37:39;16.10;;;3.88;;
76332;SDS011;71254;53.010;6.508;2024-01-27T04:40:05;12.13;;;3.17;;
76332;SDS011;71254;53.010;6.508;2024-01-27T04:42:32;22.98;;;4.05;;
76332;SDS011;71254;53.010;6.508;2024-01-27T04:44:59;17.50;;;3.03;;
76332;SDS011;71254;53.010;6.508;2024-01-27T04:47:24;21.38;;;3.92;;
76332;SDS011;71254;53.010;6.508;2024-01-27T04:49:50;13.70;;;3.40;;
76332;SDS011;71254;53.010;6.508;2024-01-27T04:52:16;13.23;;;3.78;;
76332;SDS011;71254;53.010;6.508;2024-01-27T04:54:41;12.82;;;3.35;;
76332;SDS011;71254;53.010;6.508;2024-01-27T04:57:07;11.38;;;3.42;;
76332;SDS011;71254;53.010;6.508;2024-01-27T04:59:35;16.77;;;3.33;;
76332;SDS011;71254;53.010;6.508;2024-01-27T05:02:01;20.08;;;3.70;;
76332;SDS011;71254;53.010;6.508;2024-01-27T05:04:27;10.45;;;3.35;;
76332;SDS011;71254;53.010;6.508;2024-01-27T05:06:52;14.02;;;3.50;;
76332;SDS011;71254;53.010;6.508;2024-01-27T05:09:18;9.80;;;3.03;;
76332;SDS011;71254;53.010;6.508;2024-01-27T05:11:44;18.13;;;3.38;;
76332;SDS011;71254;53.010;6.508;2024-01-27T05:14:10;16.02;;;3.78;;
76332;SDS011;71254;53.010;6.508;2024-01-27T05:16:36;14.90;;;3.90;;
76332;SDS011;71254;53.010;6.508;2024-01-27T05:19:02;18.48;;;4.45;;
76332;SDS011;71254;53.010;6.508;2024-01-27T05:21:28;13.40;;;3.40;;
76332;SDS011;71254;53.010;6.508;2024-01-27T05:23:53;17.40;;;3.97;;
76332;SDS011;71254;53.010;6.508;2024-01-27T05:26:20;15.77;;;3.70;;
76332;SDS011;71254;53.010;6.508;2024-01-27T05:28:46;17.60;;;4.32;;
76332;SDS011;71254;53.010;6.508;2024-01-27T05:31:14;11.93;;;3.70;;
76332;SDS011;71254;53.010;6.508;2024-01-27T05:33:42;17.92;;;4.10;;
76332;SDS011;71254;53.010;6.508;2024-01-27T05:36:08;14.75;;;3.50;;
76332;SDS011;71254;53.010;6.508;2024-01-27T05:38:33;13.13;;;3.30;;
76332;SDS011;71254;53.010;6.508;2024-01-27T05:41:02;14.48;;;3.83;;
76332;SDS011;71254;53.010;6.508;2024-01-27T05:43:28;13.73;;;4.60;;
76332;SDS011;71254;53.010;6.508;2024-01-27T05:45:54;15.85;;;3.97;;
76332;SDS011;71254;53.010;6.508;2024-01-27T05:48:22;14.02;;;4.47;;
76332;SDS011;71254;53.010;6.508;2024-01-27T05:50:54;20.90;;;5.22;;
76332;SDS011;71254;53.010;6.508;2024-01-27T05:53:21;16.25;;;5.65;;
76332;SDS011;71254;53.010;6.508;2024-01-27T05:55:47;18.73;;;4.95;;
76332;SDS011;71254;53.010;6.508;2024-01-27T05:58:12;14.20;;;3.78;;
76332;SDS011;71254;53.010;6.508;2024-01-27T06:00:38;17.00;;;4.25;;
76332;SDS011;71254;53.010;6.508;2024-01-27T06:03:04;17.13;;;5.03;;
76332;SDS011;71254;53.010;6.508;2024-01-27T06:05:29;16.73;;;5.65;;
76332;SDS011;71254;53.010;6.508;2024-01-27T06:07:55;19.20;;;4.43;;
76332;SDS011;71254;53.010;6.508;2024-01-27T06:10:21;16.63;;;4.05;;
76332;SDS011;71254;53.010;6.508;2024-01-27T06:12:47;17.98;;;4.43;;
76332;SDS011;71254;53.010;6.508;2024-01-27T06:15:16;14.15;;;4.38;;
76332;SDS011;71254;53.010;6.508;2024-01-27T06:17:44;17.40;;;4.43;;
76332;SDS011;71254;53.010;6.508;2024-01-27T06:20:16;17.67;;;4.00;;
76332;SDS011;71254;53.010;6.508;2024-01-27T06:22:42;17.65;;;4.57;;
76332;SDS011;71254;53.010;6.508;2024-01-27T06:25:08;18.40;;;3.90;;
76332;SDS011;71254;53.010;6.508;2024-01-27T06:27:36;17.90;;;4.25;;
76332;SDS011;71254;53.010;6.508;2024-01-27T06:32:32;10.55;;;3.85;;
76332;SDS011;71254;53.010;6.508;2024-01-27T06:34:58;16.60;;;4.43;;
76332;SDS011;71254;53.010;6.508;2024-01-27T06:37:23;21.63;;;4.95;;
76332;SDS011;71254;53.010;6.508;2024-01-27T06:39:49;13.55;;;3.88;;
76332;SDS011;71254;53.010;6.508;2024-01-27T06:42:15;20.88;;;4.97;;
76332;SDS011;71254;53.010;6.508;2024-01-27T06:44:40;14.40;;;5.00;;
76332;SDS011;71254;53.010;6.508;2024-01-27T06:47:06;20.35;;;5.68;;
76332;SDS011;71254;53.010;6.508;2024-01-27T06:49:31;18.67;;;4.88;;
76332;SDS011;71254;53.010;6.508;2024-01-27T06:52:00;18.52;;;4.53;;
76332;SDS011;71254;53.010;6.508;2024-01-27T06:54:25;16.02;;;5.03;;
76332;SDS011;71254;53.010;6.508;2024-01-27T06:56:51;16.42;;;6.53;;
76332;SDS011;71254;53.010;6.508;2024-01-27T06:59:17;20.00;;;5.30;;
76332;SDS011;71254;53.010;6.508;2024-01-27T07:01:46;24.08;;;6.47;;
76332;SDS011;71254;53.010;6.508;2024-01-27T07:04:15;15.27;;;5.30;;
76332;SDS011;71254;53.010;6.508;2024-01-27T07:06:43;14.13;;;4.95;;
76332;SDS011;71254;53.010;6.508;2024-01-27T07:09:12;18.63;;;6.43;;
76332;SDS011;71254;53.010;6.508;2024-01-27T07:11:38;17.52;;;6.05;;
76332;SDS011;71254;53.010;6.508;2024-01-27T07:14:04;24.08;;;7.00;;
76332;SDS011;71254;53.010;6.508;2024-01-27T07:16:29;23.30;;;7.15;;
76332;SDS011;71254;53.010;6.508;2024-01-27T07:18:57;26.33;;;7.20;;
76332;SDS011;71254;53.010;6.508;2024-01-27T07:21:23;15.13;;;5.90;;
76332;SDS011;71254;53.010;6.508;2024-01-27T07:23:48;15.90;;;5.75;;
76332;SDS011;71254;53.010;6.508;2024-01-27T07:26:15;21.27;;;6.32;;
76332;SDS011;71254;53.010;6.508;2024-01-27T07:28:40;19.33;;;7.40;;
76332;SDS011;71254;53.010;6.508;2024-01-27T07:31:07;19.38;;;6.25;;
76332;SDS011;71254;53.010;6.508;2024-01-27T07:33:33;23.70;;;6.97;;
76332;SDS011;71254;53.010;6.508;2024-01-27T07:35:58;22.02;;;7.32;;
76332;SDS011;71254;53.010;6.508;2024-01-27T07:38:24;22.58;;;7.97;;
76332;SDS011;71254;53.010;6.508;2024-01-27T07:40:52;30.63;;;12.77;;
76332;SDS011;71254;53.010;6.508;2024-01-27T07:43:18;27.33;;;10.35;;
76332;SDS011;71254;53.010;6.508;2024-01-27T07:45:43;23.27;;;7.72;;
76332;SDS011;71254;53.010;6.508;2024-01-27T07:48:11;19.92;;;8.15;;
76332;SDS011;71254;53.010;6.508;2024-01-27T07:50:37;26.45;;;8.88;;
76332;SDS011;71254;53.010;6.508;2024-01-27T07:53:03;29.83;;;10.77;;
76332;SDS011;71254;53.010;6.508;2024-01-27T07:55:28;30.27;;;10.30;;
76332;SDS011;71254;53.010;6.508;2024-01-27T07:57:54;22.58;;;9.40;;
76332;SDS011;71254;53.010;6.508;2024-01-27T08:00:20;19.17;;;9.30;;
76332;SDS011;71254;53.010;6.508;2024-01-27T08:02:45;27.92;;;11.05;;
76332;SDS011;71254;53.010;6.508;2024-01-27T08:05:11;26.05;;;10.48;;
76332;SDS011;71254;53.010;6.508;2024-01-27T08:07:37;24.17;;;10.52;;
76332;SDS011;71254;53.010;6.508;2024-01-27T08:10:02;24.83;;;10.68;;
76332;SDS011;71254;53.010;6.508;2024-01-27T08:12:29;22.25;;;10.52;;
76332;SDS011;71254;53.010;6.508;2024-01-27T08:14:55;27.58;;;10.70;;
76332;SDS011;71254;53.010;6.508;2024-01-27T08:17:20;25.30;;;11.13;;
76332;SDS011;71254;53.010;6.508;2024-01-27T08:19:46;24.60;;;11.07;;
76332;SDS011;71254;53.010;6.508;2024-01-27T08:22:12;24.73;;;13.00;;
76332;SDS011;71254;53.010;6.508;2024-01-27T08:24:38;27.40;;;11.55;;
76332;SDS011;71254;53.010;6.508;2024-01-27T08:27:04;21.73;;;11.40;;
76332;SDS011;71254;53.010;6.508;2024-01-27T08:29:30;26.10;;;12.43;;
76332;SDS011;71254;53.010;6.508;2024-01-27T08:31:56;29.92;;;12.95;;
76332;SDS011;71254;53.010;6.508;2024-01-27T08:34:21;28.15;;;12.40;;
76332;SDS011;71254;53.010;6.508;2024-01-27T08:36:47;25.27;;;12.95;;
76332;SDS011;71254;53.010;6.508;2024-01-27T08:39:13;24.40;;;13.05;;
76332;SDS011;71254;53.010;6.508;2024-01-27T08:41:38;30.60;;;13.23;;
76332;SDS011;71254;53.010;6.508;2024-01-27T08:44:04;31.85;;;13.98;;
76332;SDS011;71254;53.010;6.508;2024-01-27T08:46:30;32.83;;;13.80;;
76332;SDS011;71254;53.010;6.508;2024-01-27T08:48:55;29.38;;;14.32;;
76332;SDS011;71254;53.010;6.508;2024-01-27T08:51:21;33.15;;;13.75;;
76332;SDS011;71254;53.010;6.508;2024-01-27T08:53:46;24.45;;;13.30;;
76332;SDS011;71254;53.010;6.508;2024-01-27T08:56:15;29.48;;;12.68;;
76332;SDS011;71254;53.010;6.508;2024-01-27T08:58:43;22.63;;;12.63;;
76332;SDS011;71254;53.010;6.508;2024-01-27T09:01:10;29.90;;;13.05;;
76332;SDS011;71254;53.010;6.508;2024-01-27T09:03:38;28.02;;;13.77;;
76332;SDS011;71254;53.010;6.508;2024-01-27T09:06:05;29.50;;;13.02;;
76332;SDS011;71254;53.010;6.508;2024-01-27T09:08:32;25.08;;;12.95;;
76332;SDS011;71254;53.010;6.508;2024-01-27T09:10:59;25.13;;;13.05;;
76332;SDS011;71254;53.010;6.508;2024-01-27T09:13:24;31.23;;;13.65;;
76332;SDS011;71254;53.010;6.508;2024-01-27T09:15:50;24.38;;;13.75;;
76332;SDS011;71254;53.010;6.508;2024-01-27T09:18:15;27.92;;;13.40;;
76332;SDS011;71254;53.010;6.508;2024-01-27T09:20:42;24.23;;;12.85;;
76332;SDS011;71254;53.010;6.508;2024-01-27T09:23:07;24.58;;;12.40;;
76332;SDS011;71254;53.010;6.508;2024-01-27T09:25:33;22.98;;;13.02;;
76332;SDS011;71254;53.010;6.508;2024-01-27T09:27:58;27.73;;;13.98;;
76332;SDS011;71254;53.010;6.508;2024-01-27T09:30:26;24.73;;;12.57;;
76332;SDS011;71254;53.010;6.508;2024-01-27T09:32:52;27.65;;;12.68;;
76332;SDS011;71254;53.010;6.508;2024-01-27T09:35:17;21.35;;;12.85;;
76332;SDS011;71254;53.010;6.508;2024-01-27T09:37:43;27.55;;;14.02;;
76332;SDS011;71254;53.010;6.508;2024-01-27T09:40:11;21.05;;;12.43;;
76332;SDS011;71254;53.010;6.508;2024-01-27T09:42:37;26.95;;;13.43;;
76332;SDS011;71254;53.010;6.508;2024-01-27T09:45:08;21.90;;;12.57;;
76332;SDS011;71254;53.010;6.508;2024-01-27T09:47:35;30.52;;;13.50;;
76332;SDS011;71254;53.010;6.508;2024-01-27T09:50:02;24.70;;;14.23;;
76332;SDS011;71254;53.010;6.508;2024-01-27T09:52:28;29.00;;;12.68;;
76332;SDS011;71254;53.010;6.508;2024-01-27T09:54:53;27.65;;;13.38;;
76332;SDS011;71254;53.010;6.508;2024-01-27T09:57:19;21.35;;;12.57;;
76332;SDS011;71254;53.010;6.508;2024-01-27T09:59:46;28.25;;;13.90;;
76332;SDS011;71254;53.010;6.508;2024-01-27T10:02:14;22.02;;;13.13;;
76332;SDS011;71254;53.010;6.508;2024-01-27T10:04:42;26.38;;;13.05;;
76332;SDS011;71254;53.010;6.508;2024-01-27T10:07:10;27.00;;;12.57;;
76332;SDS011;71254;53.010;6.508;2024-01-27T10:09:36;24.75;;;12.57;;
76332;SDS011;71254;53.010;6.508;2024-01-27T10:12:02;24.75;;;12.23;;
76332;SDS011;71254;53.010;6.508;2024-01-27T10:14:37;27.58;;;12.88;;
76332;SDS011;71254;53.010;6.508;2024-01-27T10:17:19;22.15;;;13.05;;
76332;SDS011;71254;53.010;6.508;2024-01-27T10:19:47;21.17;;;12.40;;
76332;SDS011;71254;53.010;6.508;2024-01-27T10:22:13;27.38;;;12.52;;
76332;SDS011;71254;53.010;6.508;2024-01-27T10:24:39;23.65;;;12.32;;
76332;SDS011;71254;53.010;6.508;2024-01-27T10:27:04;23.35;;;11.43;;
76332;SDS011;71254;53.010;6.508;2024-01-27T10:29:31;28.35;;;12.50;;
76332;SDS011;71254;53.010;6.508;2024-01-27T10:32:06;24.25;;;11.70;;
76332;SDS011;71254;53.010;6.508;2024-01-27T10:34:36;20.40;;;11.15;;
76332;SDS011;71254;53.010;6.508;2024-01-27T10:37:01;22.23;;;11.57;;
76332;SDS011;71254;53.010;6.508;2024-01-27T10:39:27;21.10;;;10.65;;
76332;SDS011;71254;53.010;6.508;2024-01-27T10:41:53;22.27;;;11.35;;
76332;SDS011;71254;53.010;6.508;2024-01-27T10:44:19;19.67;;;10.90;;
76332;SDS011;71254;53.010;6.508;2024-01-27T10:46:45;20.90;;;10.50;;
76332;SDS011;71254;53.010;6.508;2024-01-27T10:49:14;22.70;;;10.27;;
76332;SDS011;71254;53.010;6.508;2024-01-27T10:51:45;23.63;;;11.05;;
76332;SDS011;71254;53.010;6.508;2024-01-27T10:54:14;28.35;;;11.73;;
76332;SDS011;71254;53.010;6.508;2024-01-27T10:56:49;27.40;;;11.88;;
76332;SDS011;71254;53.010;6.508;2024-01-27T10:59:18;19.95;;;9.93;;
76332;SDS011;71254;53.010;6.508;2024-01-27T11:01:49;19.70;;;9.98;;
76332;SDS011;71254;53.010;6.508;2024-01-27T11:04:18;21.77;;;9.98;;
76332;SDS011;71254;53.010;6.508;2024-01-27T11:06:46;21.20;;;9.65;;
76332;SDS011;71254;53.010;6.508;2024-01-27T11:09:13;18.17;;;8.20;;
76332;SDS011;71254;53.010;6.508;2024-01-27T11:11:40;19.08;;;7.22;;
76332;SDS011;71254;53.010;6.508;2024-01-27T11:14:08;19.48;;;6.68;;
76332;SDS011;71254;53.010;6.508;2024-01-27T11:16:35;17.33;;;6.28;;
76332;SDS011;71254;53.010;6.508;2024-01-27T11:19:01;18.08;;;6.28;;
76332;SDS011;71254;53.010;6.508;2024-01-27T11:21:27;18.30;;;6.38;;
76332;SDS011;71254;53.010;6.508;2024-01-27T11:23:52;18.65;;;6.72;;
76332;SDS011;71254;53.010;6.508;2024-01-27T11:26:21;20.98;;;7.60;;
76332;SDS011;71254;53.010;6.508;2024-01-27T11:31:16;17.08;;;6.93;;
76332;SDS011;71254;53.010;6.508;2024-01-27T11:33:44;17.83;;;7.28;;
76332;SDS011;71254;53.010;6.508;2024-01-27T11:36:19;20.35;;;6.45;;
76332;SDS011;71254;53.010;6.508;2024-01-27T11:38:47;17.50;;;5.82;;
76332;SDS011;71254;53.010;6.508;2024-01-27T11:41:22;11.75;;;6.47;;
76332;SDS011;71254;53.010;6.508;2024-01-27T11:43:56;19.85;;;6.63;;
76332;SDS011;71254;53.010;6.508;2024-01-27T11:46:24;19.92;;;6.28;;
76332;SDS011;71254;53.010;6.508;2024-01-27T11:48:50;18.02;;;6.15;;
76332;SDS011;71254;53.010;6.508;2024-01-27T11:51:17;19.70;;;6.70;;
76332;SDS011;71254;53.010;6.508;2024-01-27T11:53:44;14.60;;;6.10;;
76332;SDS011;71254;53.010;6.508;2024-01-27T11:56:13;15.68;;;6.13;;
76332;SDS011;71254;53.010;6.508;2024-01-27T11:58:45;13.82;;;6.32;;
76332;SDS011;71254;53.010;6.508;2024-01-27T12:01:12;19.48;;;6.38;;
76332;SDS011;71254;53.010;6.508;2024-01-27T12:03:37;14.40;;;5.70;;
76332;SDS011;71254;53.010;6.508;2024-01-27T12:06:03;14.98;;;6.40;;
76332;SDS011;71254;53.010;6.508;2024-01-27T12:08:31;14.98;;;6.18;;
76332;SDS011;71254;53.010;6.508;2024-01-27T12:10:56;15.85;;;6.55;;
76332;SDS011;71254;53.010;6.508;2024-01-27T12:13:22;16.88;;;6.30;;
76332;SDS011;71254;53.010;6.508;2024-01-27T12:15:50;15.57;;;5.88;;
76332;SDS011;71254;53.010;6.508;2024-01-27T12:18:16;16.00;;;5.70;;
76332;SDS011;71254;53.010;6.508;2024-01-27T12:20:43;16.98;;;6.00;;
76332;SDS011;71254;53.010;6.508;2024-01-27T12:23:10;18.88;;;7.50;;
76332;SDS011;71254;53.010;6.508;2024-01-27T12:25:35;13.43;;;6.00;;
76332;SDS011;71254;53.010;6.508;2024-01-27T12:28:02;13.50;;;6.50;;
76332;SDS011;71254;53.010;6.508;2024-01-27T12:30:28;19.75;;;6.78;;
76332;SDS011;71254;53.010;6.508;2024-01-27T12:32:53;18.17;;;6.85;;
76332;SDS011;71254;53.010;6.508;2024-01-27T12:35:19;14.77;;;6.10;;
76332;SDS011;71254;53.010;6.508;2024-01-27T12:37:45;12.95;;;5.80;;
76332;SDS011;71254;53.010;6.508;2024-01-27T12:40:20;20.65;;;6.20;;
76332;SDS011;71254;53.010;6.508;2024-01-27T12:42:47;14.55;;;5.65;;
76332;SDS011;71254;53.010;6.508;2024-01-27T12:45:16;16.73;;;5.70;;
76332;SDS011;71254;53.010;6.508;2024-01-27T12:47:41;14.23;;;4.75;;
76332;SDS011;71254;53.010;6.508;2024-01-27T12:50:10;13.60;;;6.15;;
76332;SDS011;71254;53.010;6.508;2024-01-27T12:52:36;15.57;;;4.38;;
76332;SDS011;71254;53.010;6.508;2024-01-27T12:55:02;17.02;;;5.07;;
76332;SDS011;71254;53.010;6.508;2024-01-27T12:57:29;14.60;;;4.90;;
76332;SDS011;71254;53.010;6.508;2024-01-27T12:59:54;10.93;;;4.55;;
76332;SDS011;71254;53.010;6.508;2024-01-27T13:02:20;11.50;;;4.35;;
76332;SDS011;71254;53.010;6.508;2024-01-27T13:04:46;10.57;;;4.95;;
76332;SDS011;71254;53.010;6.508;2024-01-27T13:07:11;15.55;;;5.13;;
76332;SDS011;71254;53.010;6.508;2024-01-27T13:09:37;13.45;;;5.05;;
76332;SDS011;71254;53.010;6.508;2024-01-27T13:12:03;12.55;;;4.35;;
76332;SDS011;71254;53.010;6.508;2024-01-27T13:14:29;14.35;;;4.93;;
76332;SDS011;71254;53.010;6.508;2024-01-27T13:16:55;16.75;;;4.30;;
76332;SDS011;71254;53.010;6.508;2024-01-27T13:19:21;18.27;;;4.50;;
76332;SDS011;71254;53.010;6.508;2024-01-27T13:21:47;15.35;;;4.63;;
76332;SDS011;71254;53.010;6.508;2024-01-27T13:24:12;15.48;;;4.20;;
76332;SDS011;71254;53.010;6.508;2024-01-27T13:26:38;14.75;;;4.25;;
76332;SDS011;71254;53.010;6.508;2024-01-27T13:29:04;14.02;;;5.28;;
76332;SDS011;71254;53.010;6.508;2024-01-27T13:31:30;14.80;;;4.57;;
76332;SDS011;71254;53.010;6.508;2024-01-27T13:33:56;13.25;;;4.35;;
76332;SDS011;71254;53.010;6.508;2024-01-27T13:36:22;11.90;;;4.00;;
76332;SDS011;71254;53.010;6.508;2024-01-27T13:38:49;15.27;;;4.32;;
76332;SDS011;71254;53.010;6.508;2024-01-27T13:41:15;16.75;;;4.78;;
76332;SDS011;71254;53.010;6.508;2024-01-27T13:43:41;14.60;;;4.70;;
76332;SDS011;71254;53.010;6.508;2024-01-27T13:46:06;8.82;;;4.05;;
76332;SDS011;71254;53.010;6.508;2024-01-27T13:48:32;12.68;;;4.25;;
76332;SDS011;71254;53.010;6.508;2024-01-27T13:50:58;13.15;;;4.22;;
76332;SDS011;71254;53.010;6.508;2024-01-27T13:53:24;14.23;;;4.53;;
76332;SDS011;71254;53.010;6.508;2024-01-27T13:55:49;12.60;;;4.25;;
76332;SDS011;71254;53.010;6.508;2024-01-27T13:58:15;14.00;;;4.15;;
76332;SDS011;71254;53.010;6.508;2024-01-27T14:00:42;15.07;;;5.95;;
76332;SDS011;71254;53.010;6.508;2024-01-27T14:03:08;17.95;;;4.22;;
76332;SDS011;71254;53.010;6.508;2024-01-27T14:05:34;12.95;;;4.18;;
76332;SDS011;71254;53.010;6.508;2024-01-27T14:07:59;14.02;;;4.55;;
76332;SDS011;71254;53.010;6.508;2024-01-27T14:10:25;11.25;;;4.70;;
76332;SDS011;71254;53.010;6.508;2024-01-27T14:12:52;11.32;;;4.38;;
76332;SDS011;71254;53.010;6.508;2024-01-27T14:15:17;20.45;;;4.75;;
76332;SDS011;71254;53.010;6.508;2024-01-27T14:17:43;18.23;;;4.90;;
76332;SDS011;71254;53.010;6.508;2024-01-27T14:20:09;13.48;;;4.85;;
76332;SDS011;71254;53.010;6.508;2024-01-27T14:22:35;17.13;;;4.20;;
76332;SDS011;71254;53.010;6.508;2024-01-27T14:25:01;11.90;;;4.60;;
76332;SDS011;71254;53.010;6.508;2024-01-27T14:27:27;14.27;;;4.93;;
76332;SDS011;71254;53.010;6.508;2024-01-27T14:29:53;13.95;;;5.30;;